createdAt,value
2023-01-07T00:01:43.856Z,99228.25
2023-01-07T00:04:29.253Z,99228.25
2023-01-07T00:07:14.508Z,99222.69
2023-01-07T00:09:59.843Z,99235.03
2023-01-07T00:12:45.141Z,99219.91
2023-01-07T00:15:30.495Z,99226.69
2023-01-07T00:18:15.834Z,99227.47
2023-01-07T00:21:03.805Z,99229.47
2023-01-07T00:23:49.451Z,99224.31
2023-01-07T00:26:37.870Z,99231.47
2023-01-07T00:29:23.557Z,99231.47
2023-01-07T00:32:08.803Z,99225.09
2023-01-07T00:34:54.054Z,99219.53
2023-01-07T00:37:51.272Z,99223.56
2023-01-07T00:40:37.312Z,99213.97
2023-01-07T00:43:22.994Z,99212.44
2023-01-07T00:46:09.786Z,99206.88
2023-01-07T00:48:55.635Z,99210.44
2023-01-07T00:51:41.127Z,99205.66
2023-01-07T00:54:26.582Z,99211.22
2023-01-07T00:57:14.904Z,99208.88
2023-01-07T01:00:00.740Z,99214.78
2023-01-07T01:02:47.364Z,99206.44
2023-01-07T01:05:32.868Z,99210.44
2023-01-07T01:08:18.611Z,99206.09
2023-01-07T01:11:08.696Z,99213.22
2023-01-07T01:13:54.525Z,99212.44
2023-01-07T01:16:40.065Z,99222.31
2023-01-07T01:19:25.162Z,99212.44
2023-01-07T01:22:10.321Z,99214.44
2023-01-07T01:24:55.495Z,99214.44
2023-01-07T01:27:40.924Z,99205.31
2023-01-07T01:30:26.357Z,99222.00
2023-01-07T01:33:12.140Z,99210.06
2023-01-07T01:35:57.758Z,99213.66
2023-01-07T01:38:43.170Z,99206.09
2023-01-07T01:41:29.023Z,99208.09
2023-01-07T01:44:39.470Z,99203.72
2023-01-07T01:47:58.656Z,99217.63
2023-01-07T01:50:47.546Z,99214.84
2023-01-07T01:53:35.664Z,99205.72
2023-01-07T01:56:27.777Z,99210.06
2023-01-07T01:59:18.829Z,99204.50
2023-01-07T02:02:06.612Z,99206.50
2023-01-07T02:04:55.047Z,99202.19
2023-01-07T02:07:40.554Z,99199.75
2023-01-07T02:10:28.571Z,99194.63
2023-01-07T02:13:51.782Z,99191.06
2023-01-07T02:16:58.012Z,99192.63
2023-01-07T02:19:54.998Z,99180.72
2023-01-07T02:22:58.874Z,99177.94
2023-01-07T02:26:21.521Z,99182.72
2023-01-07T02:29:39.310Z,99170.38
2023-01-07T02:32:53.961Z,99173.56
2023-01-07T02:35:58.137Z,99171.59
2023-01-07T02:38:46.390Z,99177.16
2023-01-07T02:41:47.998Z,99166.03
2023-01-07T02:44:42.403Z,99160.91
2023-01-07T02:47:41.658Z,99158.91
2023-01-07T02:50:27.307Z,99160.47
2023-01-07T02:53:17.283Z,99162.44
2023-01-07T02:56:40.607Z,99156.13
2023-01-07T02:59:49.362Z,99157.69
2023-01-07T03:02:44.482Z,99156.13
2023-01-07T03:05:48.091Z,99163.25
2023-01-07T03:09:02.010Z,99166.03
2023-01-07T03:12:00.814Z,99163.69
2023-01-07T03:15:29.141Z,99166.47
2023-01-07T03:18:23.769Z,99162.91
2023-01-07T03:21:14.874Z,99165.69
2023-01-07T03:24:02.007Z,99158.53
2023-01-07T03:26:50.882Z,99164.47
2023-01-07T03:29:36.815Z,99157.34
2023-01-07T03:32:32.450Z,99158.53
2023-01-07T03:35:20.774Z,99168.47
2023-01-07T03:38:07.599Z,99172.00
2023-01-07T03:40:54.935Z,99168.47
2023-01-07T03:43:40.206Z,99170.47
2023-01-07T03:46:25.514Z,99160.13
2023-01-07T03:49:10.845Z,99165.69
2023-01-07T03:51:56.108Z,99161.31
2023-01-07T03:54:41.866Z,99167.69
2023-01-07T03:57:29.181Z,99163.31
2023-01-07T04:00:16.153Z,99157.75
2023-01-07T04:03:08.112Z,99170.47
2023-01-07T04:05:58.218Z,99159.34
2023-01-07T04:08:43.984Z,99158.53
2023-01-07T04:11:29.938Z,99159.34
2023-01-07T04:14:15.817Z,99153.78
2023-01-07T04:17:01.587Z,99155.75
2023-01-07T04:19:46.931Z,99154.56
2023-01-07T04:22:33.309Z,99149.78
2023-01-07T04:25:18.666Z,99142.66
2023-01-07T04:28:04.537Z,99137.09
2023-01-07T04:30:50.272Z,99148.22
2023-01-07T04:33:36.532Z,99137.88
2023-01-07T04:36:21.761Z,99140.66
2023-01-07T04:39:07.579Z,99131.53
2023-01-07T04:41:53.334Z,99136.31
2023-01-07T04:44:38.689Z,99135.09
2023-01-07T04:47:24.600Z,99135.53
2023-01-07T04:50:10.531Z,99133.09
2023-01-07T04:52:56.254Z,99129.97
2023-01-07T04:55:41.930Z,99128.78
2023-01-07T04:58:27.704Z,99127.97
2023-01-07T05:01:14.814Z,99134.31
2023-01-07T05:04:01.476Z,99133.53
2023-01-07T05:06:47.656Z,99127.19
2023-01-07T05:09:33.973Z,99126.75
2023-01-07T05:12:19.143Z,99117.66
2023-01-07T05:15:06.611Z,99121.97
2023-01-07T05:17:54.269Z,99121.56
2023-01-07T05:20:42.748Z,99124.34
2023-01-07T05:23:28.695Z,99119.16
2023-01-07T05:26:17.057Z,99119.47
2023-01-07T05:29:02.546Z,99116.63
2023-01-07T05:31:47.859Z,99121.69
2023-01-07T05:34:33.811Z,99113.28
2023-01-07T05:37:18.924Z,99108.44
2023-01-07T05:40:05.178Z,99112.34
2023-01-07T05:42:50.542Z,99104.25
2023-01-07T05:45:35.885Z,99112.53
2023-01-07T05:48:21.197Z,99112.81
2023-01-07T05:51:07.436Z,99109.88
2023-01-07T05:53:52.739Z,99110.22
2023-01-07T05:56:38.113Z,99112.13
2023-01-07T05:59:23.926Z,99110.94
2023-01-07T06:02:09.508Z,99108.94
2023-01-07T06:04:54.956Z,99107.63
2023-01-07T06:07:40.616Z,99109.91
2023-01-07T06:10:26.258Z,99112.69
2023-01-07T06:13:11.563Z,99110.53
2023-01-07T06:16:05.485Z,99106.88
2023-01-07T06:18:51.680Z,99099.59
2023-01-07T06:21:37.054Z,99095.94
2023-01-07T06:24:22.394Z,99093.16
2023-01-07T06:27:10.067Z,99099.84
2023-01-07T06:29:55.828Z,99097.06
2023-01-07T06:32:43.066Z,99104.56
2023-01-07T06:35:28.465Z,99102.63
2023-01-07T06:38:13.993Z,99093.59
2023-01-07T06:40:59.633Z,99091.69
2023-01-07T06:43:44.897Z,99087.00
2023-01-07T06:46:30.418Z,99087.81
2023-01-07T06:49:15.761Z,99098.25
2023-01-07T06:52:15.106Z,99091.13
2023-01-07T06:55:00.762Z,99101.19
2023-01-07T06:57:46.081Z,99098.59
2023-01-07T07:00:31.458Z,99089.53
2023-01-07T07:03:16.891Z,99095.50
2023-01-07T07:06:02.248Z,99093.09
2023-01-07T07:08:47.553Z,99096.31
2023-01-07T07:11:32.728Z,99097.97
2023-01-07T07:14:18.082Z,99093.59
2023-01-07T07:17:04.162Z,99092.47
2023-01-07T07:19:49.800Z,99101.19
2023-01-07T07:22:34.994Z,99095.63
2023-01-07T07:25:21.343Z,99094.75
2023-01-07T07:28:06.833Z,99092.31
2023-01-07T07:30:52.264Z,99093.44
2023-01-07T07:33:38.087Z,99098.50
2023-01-07T07:36:23.690Z,99098.06
2023-01-07T07:39:09.311Z,99095.97
2023-01-07T07:41:55.655Z,99101.13
2023-01-07T07:44:41.370Z,99094.78
2023-01-07T07:47:26.788Z,99090.25
2023-01-07T07:50:12.268Z,99091.75
2023-01-07T07:52:57.644Z,99083.81
2023-01-07T07:55:42.923Z,99085.38
2023-01-07T07:58:28.140Z,99087.78
2023-01-07T08:01:13.612Z,99085.75
2023-01-07T08:03:58.859Z,99077.34
2023-01-07T08:06:46.142Z,99080.13
2023-01-07T08:09:32.013Z,99078.88
2023-01-07T08:12:17.261Z,99070.13
2023-01-07T08:15:02.966Z,99074.03
2023-01-07T08:18:01.254Z,99070.81
2023-01-07T08:20:48.844Z,99070.00
2023-01-07T08:23:37.229Z,99075.56
2023-01-07T08:26:22.731Z,99074.81
2023-01-07T08:29:08.941Z,99080.19
2023-01-07T08:31:54.725Z,99077.75
2023-01-07T08:34:40.123Z,99075.75
2023-01-07T08:37:25.410Z,99078.88
2023-01-07T08:40:13.138Z,99076.91
2023-01-07T08:43:03.682Z,99080.81
2023-01-07T08:45:49.434Z,99083.06
2023-01-07T08:48:36.124Z,99079.84
2023-01-07T08:51:22.116Z,99080.53
2023-01-07T08:54:07.389Z,99077.28
2023-01-07T08:56:52.954Z,99073.38
2023-01-07T08:59:40.701Z,99080.53
2023-01-07T09:02:26.203Z,99074.63
2023-01-07T09:05:12.385Z,99067.03
2023-01-07T09:07:57.802Z,99068.59
2023-01-07T09:10:43.323Z,99068.25
2023-01-07T09:13:28.800Z,99057.91
2023-01-07T09:16:14.737Z,99060.69
2023-01-07T09:19:00.101Z,99052.25
2023-01-07T09:21:45.464Z,99057.38
2023-01-07T09:24:30.911Z,99057.72
2023-01-07T09:27:17.258Z,99064.41
2023-01-07T09:30:04.031Z,99058.41
2023-01-07T09:32:49.957Z,99051.28
2023-01-07T09:35:35.465Z,99052.50
2023-01-07T09:38:20.793Z,99051.28
2023-01-07T09:41:28.239Z,99055.28
2023-01-07T09:44:30.037Z,99051.63
2023-01-07T09:47:19.447Z,99054.75
2023-01-07T09:50:25.082Z,99057.34
2023-01-07T09:53:16.520Z,99041.09
2023-01-07T09:56:10.805Z,99044.19
2023-01-07T09:58:59.762Z,99044.19
2023-01-07T10:02:15.268Z,99039.41
2023-01-07T10:05:34.341Z,99039.78
2023-01-07T10:08:35.048Z,99028.63
2023-01-07T10:11:26.769Z,99024.19
2023-01-07T10:14:30.703Z,99016.94
2023-01-07T10:17:44.322Z,99007.56
2023-01-07T10:20:44.261Z,99014.34
2023-01-07T10:23:35.933Z,99015.13
2023-01-07T10:26:34.546Z,99009.13
2023-01-07T10:29:29.032Z,99003.56
2023-01-07T10:32:17.197Z,98999.53
2023-01-07T10:35:03.797Z,98991.88
2023-01-07T10:37:49.213Z,98987.84
2023-01-07T10:40:43.274Z,98991.31
2023-01-07T10:43:37.733Z,98982.97
2023-01-07T10:46:38.638Z,98974.16
2023-01-07T10:49:44.506Z,98982.41
2023-01-07T10:52:52.542Z,98984.69
2023-01-07T10:56:10.445Z,98985.38
2023-01-07T10:58:56.246Z,98971.00
2023-01-07T11:01:45.998Z,98966.66
2023-01-07T11:04:31.805Z,98959.97
2023-01-07T11:07:53.878Z,98947.72
2023-01-07T11:10:39.868Z,98942.53
2023-01-07T11:13:30.477Z,98941.34
2023-01-07T11:16:27.803Z,98933.41
2023-01-07T11:19:14.715Z,98918.34
2023-01-07T11:22:00.090Z,98921.13
2023-01-07T11:24:45.504Z,98925.16
2023-01-07T11:27:34.374Z,98916.44
2023-01-07T11:30:29.048Z,98916.22
2023-01-07T11:34:02.621Z,98917.09
2023-01-07T11:36:42.731Z,98903.94
2023-01-07T11:39:31.011Z,98904.06
2023-01-07T11:42:37.392Z,98896.16
2023-01-07T11:45:28.741Z,98886.59
2023-01-07T11:48:23.304Z,98897.13
2023-01-07T11:51:11.218Z,98891.78
2023-01-07T11:59:47.578Z,98887.97
2023-01-07T12:02:32.437Z,98875.72
2023-01-07T12:05:26.323Z,98865.81
2023-01-07T12:08:22.353Z,98873.69
2023-01-07T12:11:10.655Z,98876.06
2023-01-07T12:13:55.164Z,98874.38
2023-01-07T12:19:41.573Z,98861.16
2023-01-07T12:22:32.824Z,98856.25
2023-01-07T12:25:23.766Z,98843.88
2023-01-07T12:28:16.775Z,98837.88
2023-01-07T12:31:21.701Z,98849.78
2023-01-07T12:34:37.242Z,98841.09
2023-01-07T12:37:36.072Z,98839.13
2023-01-07T12:40:50.134Z,98839.41
2023-01-07T12:43:57.772Z,98843.78
2023-01-07T12:46:51.656Z,98836.63
2023-01-07T12:49:50.111Z,98835.44
2023-01-07T12:53:21.600Z,98831.41
2023-01-07T12:56:17.043Z,98835.78
2023-01-07T12:59:47.055Z,98830.53
2023-01-07T13:02:48.434Z,98827.41
2023-01-07T13:05:52.129Z,98826.94
2023-01-07T13:08:37.426Z,98822.97
2023-01-07T13:12:01.707Z,98812.94
2023-01-07T13:14:53.071Z,98820.84
2023-01-07T13:17:40.638Z,98823.16
2023-01-07T13:20:41.405Z,98822.63
2023-01-07T13:23:51.871Z,98811.50
2023-01-07T13:27:01.825Z,98814.72
2023-01-07T13:30:16.922Z,98811.50
2023-01-07T13:33:15.862Z,98805.59
2023-01-07T13:36:08.640Z,98800.34
2023-01-07T13:39:06.335Z,98799.25
2023-01-07T13:42:22.391Z,98794.78
2023-01-07T13:45:13.919Z,98787.53
2023-01-07T13:48:03.312Z,98796.66
2023-01-07T13:51:01.793Z,98793.88
2023-01-07T13:53:47.961Z,98793.31
2023-01-07T13:56:36.138Z,98784.88
2023-01-07T13:59:30.650Z,98783.97
2023-01-07T14:02:21.975Z,98782.00
2023-01-07T14:05:23.599Z,98777.53
2023-01-07T14:08:10.068Z,98779.41
2023-01-07T14:10:55.769Z,98780.19
2023-01-07T14:14:20.486Z,98773.41
2023-01-07T14:17:43.469Z,98769.38
2023-01-07T14:20:39.865Z,98760.91
2023-01-07T14:23:40.841Z,98748.06
2023-01-07T14:26:40.719Z,98742.50
2023-01-07T14:29:41.613Z,98742.06
2023-01-07T14:32:37.039Z,98737.69
2023-01-07T14:35:31.681Z,98736.81
2023-01-07T14:38:29.488Z,98735.13
2023-01-07T14:41:17.942Z,98731.09
2023-01-07T14:44:24.848Z,98725.53
2023-01-07T14:47:12.105Z,98724.44
2023-01-07T14:50:35.302Z,98732.34
2023-01-07T14:53:53.244Z,98726.00
2023-01-07T14:57:03.306Z,98730.78
2023-01-07T15:00:13.956Z,98722.41
2023-01-07T15:03:15.042Z,98729.22
2023-01-07T15:06:19.194Z,98719.63
2023-01-07T15:09:39.052Z,98716.50
2023-01-07T15:12:49.637Z,98723.31
2023-01-07T15:15:56.640Z,98718.66
2023-01-07T15:18:49.824Z,98714.75
2023-01-07T15:22:01.854Z,98711.19
2023-01-07T15:25:10.456Z,98710.75
2023-01-07T15:28:12.189Z,98714.28
2023-01-07T15:32:05.725Z,98713.53
2023-01-07T15:34:51.409Z,98717.09
2023-01-07T15:37:36.848Z,98719.97
2023-01-07T15:40:25.499Z,98718.00
2023-01-07T15:43:23.370Z,98715.22
2023-01-07T15:46:08.797Z,98719.22
2023-01-07T15:49:28.024Z,98709.63
2023-01-07T15:52:23.870Z,98712.41
2023-01-07T15:55:26.057Z,98715.22
2023-01-07T15:58:18.592Z,98713.63
2023-01-07T16:01:05.207Z,98716.41
2023-01-07T16:03:55.199Z,98705.75
2023-01-07T16:06:46.160Z,98707.28
2023-01-07T16:09:34.142Z,98708.53
2023-01-07T16:12:26.094Z,98704.06
2023-01-07T16:15:26.947Z,98700.03
2023-01-07T16:18:14.251Z,98688.22
2023-01-07T16:21:12.270Z,98685.00
2023-01-07T16:23:57.926Z,98686.53
2023-01-07T16:26:50.942Z,98676.19
2023-01-07T16:29:57.330Z,98679.09
2023-01-07T16:32:44.386Z,98671.66
2023-01-07T16:35:36.565Z,98667.63
2023-01-07T16:38:22.500Z,98668.38
2023-01-07T16:41:19.047Z,98669.31
2023-01-07T16:44:04.652Z,98669.53
2023-01-07T16:47:06.573Z,98669.88
2023-01-07T16:49:54.018Z,98674.22
2023-01-07T16:52:55.696Z,98667.75
2023-01-07T16:55:53.404Z,98667.63
2023-01-07T16:58:47.165Z,98666.84
2023-01-07T17:01:34.915Z,98659.25
2023-01-07T17:04:42.979Z,98657.56
2023-01-07T17:07:29.029Z,98655.69
2023-01-07T17:10:22.315Z,98653.34
2023-01-07T17:13:32.743Z,98647.00
2023-01-07T17:16:30.293Z,98646.44
2023-01-07T17:19:25.547Z,98640.41
2023-01-07T17:22:33.341Z,98642.88
2023-01-07T17:25:24.812Z,98636.19
2023-01-07T17:28:19.251Z,98636.31
2023-01-07T17:31:07.141Z,98632.41
2023-01-07T17:33:53.789Z,98626.97
2023-01-07T17:36:39.562Z,98630.97
2023-01-07T17:39:25.187Z,98623.38
2023-01-07T17:42:40.936Z,98625.81
2023-01-07T17:45:27.362Z,98617.94
2023-01-07T17:48:13.672Z,98626.41
2023-01-07T17:51:01.383Z,98620.41
2023-01-07T17:53:49.089Z,98620.41
2023-01-07T17:56:34.491Z,98622.41
2023-01-07T17:59:22.809Z,98619.97
2023-01-07T18:02:19.035Z,98626.75
2023-01-07T18:05:05.431Z,98621.59
2023-01-07T18:07:52.280Z,98623.63
2023-01-07T18:10:56.116Z,98621.16
2023-01-07T18:13:41.966Z,98617.72
2023-01-07T18:16:27.628Z,98612.63
2023-01-07T18:19:14.896Z,98618.63
2023-01-07T18:22:00.147Z,98609.50
2023-01-07T18:24:45.440Z,98614.28
2023-01-07T18:27:30.769Z,98607.16
2023-01-07T18:30:18.652Z,98608.41
2023-01-07T18:33:05.814Z,98605.63
2023-01-07T18:35:51.550Z,98600.03
2023-01-07T18:38:37.019Z,98600.03
2023-01-07T18:41:22.555Z,98595.25
2023-01-07T18:44:13.244Z,98598.47
2023-01-07T18:46:58.956Z,98589.00
2023-01-07T18:49:44.508Z,98599.38
2023-01-07T18:52:31.104Z,98588.25
2023-01-07T18:55:18.068Z,98597.38
2023-01-07T18:58:03.733Z,98613.41
2023-01-07T19:00:49.601Z,98606.75
2023-01-07T19:03:35.646Z,98606.09
2023-01-07T19:06:21.428Z,98612.31
2023-01-07T19:09:07.057Z,98602.41
2023-01-07T19:11:56.256Z,98596.50
2023-01-07T19:14:41.736Z,98591.06
2023-01-07T19:17:28.262Z,98589.94
2023-01-07T19:20:15.377Z,98591.63
2023-01-07T19:23:01.306Z,98593.63
2023-01-07T19:26:01.622Z,98590.72
2023-01-07T19:28:47.771Z,98596.41
2023-01-07T19:31:34.271Z,98591.16
2023-01-07T19:34:19.968Z,98588.03
2023-01-07T19:37:05.514Z,98593.16
2023-01-07T19:39:50.881Z,98591.06
2023-01-07T19:42:36.080Z,98587.84
2023-01-07T19:45:21.586Z,98584.91
2023-01-07T19:48:07.552Z,98591.59
2023-01-07T19:51:05.449Z,98580.78
2023-01-07T19:53:51.266Z,98585.13
2023-01-07T19:56:37.017Z,98575.19
2023-01-07T19:59:22.828Z,98580.78
2023-01-07T20:02:08.426Z,98568.53
2023-01-07T20:04:54.288Z,98557.53
2023-01-07T20:07:40.887Z,98558.88
2023-01-07T20:10:27.722Z,98554.97
2023-01-07T20:13:13.612Z,98544.75
2023-01-07T20:16:10.731Z,98537.31
2023-01-07T20:18:56.414Z,98534.97
2023-01-07T20:21:42.375Z,98540.19
2023-01-07T20:24:29.841Z,98544.66
2023-01-07T20:27:15.488Z,98539.09
2023-01-07T20:30:00.733Z,98535.19
2023-01-07T20:32:48.993Z,98534.09
2023-01-07T20:35:36.432Z,98523.84
2023-01-07T20:38:22.714Z,98532.19
2023-01-07T20:41:10.934Z,98522.75
2023-01-07T20:44:01.083Z,98523.50
2023-01-07T20:46:46.871Z,98527.53
2023-01-07T20:49:32.290Z,98520.41
2023-01-07T20:52:18.449Z,98522.06
2023-01-07T20:55:04.075Z,98520.97
2023-01-07T20:57:49.705Z,98520.66
2023-01-07T21:00:35.592Z,98516.75
2023-01-07T21:03:20.940Z,98516.75
2023-01-07T21:06:09.862Z,98517.19
2023-01-07T21:08:55.938Z,98508.84
2023-01-07T21:11:43.191Z,98504.09
2023-01-07T21:14:28.800Z,98494.16
2023-01-07T21:17:15.943Z,98493.72
2023-01-07T21:20:01.474Z,98486.59
2023-01-07T21:22:48.109Z,98482.69
2023-01-07T21:25:33.597Z,98486.25
2023-01-07T21:28:18.895Z,98477.59
2023-01-07T21:31:08.671Z,98476.00
2023-01-07T21:33:56.479Z,98477.69
2023-01-07T21:36:42.833Z,98473.81
2023-01-07T21:39:28.237Z,98471.47
2023-01-07T21:42:13.531Z,98462.91
2023-01-07T21:44:58.772Z,98459.00
2023-01-07T21:47:44.088Z,98462.59
2023-01-07T21:50:29.381Z,98453.91
2023-01-07T21:53:14.782Z,98453.91
2023-01-07T21:56:06.672Z,98449.88
2023-01-07T21:58:52.880Z,98455.44
2023-01-07T22:01:38.371Z,98452.66
2023-01-07T22:04:25.255Z,98443.13
2023-01-07T22:07:16.127Z,98455.78
2023-01-07T22:10:02.357Z,98449.00
2023-01-07T22:12:47.948Z,98451.78
2023-01-07T22:15:33.248Z,98454.56
2023-01-07T22:18:18.514Z,98453.78
2023-01-07T22:21:03.951Z,98443.44
2023-01-07T22:23:49.307Z,98439.41
2023-01-07T22:26:36.142Z,98436.31
2023-01-07T22:29:21.979Z,98442.63
2023-01-07T22:32:07.353Z,98436.31
2023-01-07T22:34:52.588Z,98431.50
2023-01-07T22:37:37.802Z,98431.50
2023-01-07T22:40:23.290Z,98423.16
2023-01-07T22:43:14.234Z,98418.84
2023-01-07T22:46:23.374Z,98410.50
2023-01-07T22:49:08.935Z,98419.63
2023-01-07T22:51:54.823Z,98406.16
2023-01-07T22:54:40.428Z,98398.59
2023-01-07T22:57:26.355Z,98391.47
2023-01-07T23:00:37.072Z,98391.47
2023-01-07T23:03:23.803Z,98399.03
2023-01-07T23:06:11.435Z,98393.47
2023-01-07T23:08:57.133Z,98394.72
2023-01-07T23:11:48.481Z,98392.72
2023-01-07T23:14:33.688Z,98395.50
2023-01-07T23:17:18.972Z,98392.72
2023-01-07T23:20:04.608Z,98392.72
2023-01-07T23:22:50.077Z,98380.81
2023-01-07T23:25:36.676Z,98376.03
2023-01-07T23:28:22.240Z,98373.69
2023-01-07T23:31:07.641Z,98375.69
2023-01-07T23:33:53.061Z,98375.69
2023-01-07T23:36:38.809Z,98370.13
2023-01-07T23:39:24.521Z,98357.44
2023-01-07T23:42:09.920Z,98347.88
2023-01-07T23:44:55.241Z,98352.66
2023-01-07T23:47:40.557Z,98344.31
2023-01-07T23:50:25.850Z,98335.19
2023-01-07T23:53:11.218Z,98332.41
2023-01-07T23:55:57.134Z,98340.75
2023-01-07T23:58:42.475Z,98346.31
